createdAt,value
2022-09-03T00:00:00.191Z,13.5
2022-09-03T00:05:00.174Z,13.6
2022-09-03T00:10:00.235Z,13.6
2022-09-03T00:15:00.186Z,13.6
2022-09-03T00:20:00.181Z,13.7
2022-09-03T00:25:00.168Z,13.6
2022-09-03T00:30:00.187Z,13.6
2022-09-03T00:35:00.177Z,13.6
2022-09-03T00:40:00.339Z,13.6
2022-09-03T00:45:00.173Z,13.6
2022-09-03T00:50:00.177Z,13.6
2022-09-03T00:55:00.181Z,13.6
2022-09-03T01:00:00.176Z,13.7
2022-09-03T01:05:00.198Z,13.8
2022-09-03T01:10:00.176Z,13.9
2022-09-03T01:15:00.172Z,14
2022-09-03T01:20:01.014Z,14.1
2022-09-03T01:25:00.434Z,14.1
2022-09-03T01:30:00.189Z,14.1
2022-09-03T01:35:00.183Z,14.1
2022-09-03T01:40:00.366Z,14.2
2022-09-03T01:45:00.171Z,14.1
2022-09-03T01:50:00.175Z,14.1
2022-09-03T01:55:00.166Z,14
2022-09-03T02:00:00.186Z,14
2022-09-03T02:05:00.311Z,14
2022-09-03T02:10:00.323Z,14
2022-09-03T02:15:00.159Z,14
2022-09-03T02:20:00.160Z,14
2022-09-03T02:25:00.182Z,14
2022-09-03T02:30:00.205Z,14.1
2022-09-03T02:35:00.165Z,14.2
2022-09-03T02:40:00.269Z,14.2
2022-09-03T02:45:00.169Z,14.3
2022-09-03T02:50:00.207Z,14.4
2022-09-03T02:55:00.190Z,14.4
2022-09-03T03:00:00.187Z,14.4
2022-09-03T03:05:00.154Z,14.4
2022-09-03T03:10:00.169Z,14.4
2022-09-03T03:15:00.159Z,14.4
2022-09-03T03:20:00.163Z,14.4
2022-09-03T03:25:00.197Z,14.4
2022-09-03T03:30:00.219Z,14.4
2022-09-03T03:35:00.217Z,14.4
2022-09-03T03:40:00.299Z,14.4
2022-09-03T03:45:00.181Z,14.4
2022-09-03T03:50:00.199Z,14.4
2022-09-03T03:55:00.188Z,14.4
2022-09-03T04:00:00.370Z,14.4
2022-09-03T04:05:00.267Z,14.4
2022-09-03T04:10:00.269Z,14.4
2022-09-03T04:15:00.273Z,14.4
2022-09-03T04:20:00.171Z,14.5
2022-09-03T04:25:00.861Z,14.6
2022-09-03T04:30:00.155Z,14.6
2022-09-03T04:35:00.217Z,14.7
2022-09-03T04:40:00.348Z,14.7
2022-09-03T04:45:00.156Z,14.8
2022-09-03T04:50:00.166Z,14.8
2022-09-03T04:55:00.177Z,14.8
2022-09-03T05:00:00.156Z,14.8
2022-09-03T05:05:00.185Z,14.8
2022-09-03T05:10:00.183Z,14.9
2022-09-03T05:15:00.160Z,14.9
2022-09-03T05:20:00.195Z,14.9
2022-09-03T05:25:00.158Z,14.9
2022-09-03T05:30:00.176Z,15
2022-09-03T05:35:00.151Z,15.1
2022-09-03T05:40:00.276Z,15.1
2022-09-03T05:45:00.158Z,15.1
2022-09-03T05:50:00.170Z,15.2
2022-09-03T05:55:00.162Z,15.2
2022-09-03T06:00:00.155Z,15.3
2022-09-03T06:05:00.168Z,15.4
2022-09-03T06:10:00.165Z,15.5
2022-09-03T06:15:00.165Z,15.6
2022-09-03T06:20:00.158Z,15.8
2022-09-03T06:25:00.150Z,15.8
2022-09-03T06:30:00.179Z,15.9
2022-09-03T06:35:00.448Z,16
2022-09-03T06:40:00.303Z,16.1
2022-09-03T06:45:00.185Z,16.1
2022-09-03T06:50:00.188Z,16.2
2022-09-03T06:55:00.156Z,16.2
2022-09-03T07:00:00.189Z,16.3
2022-09-03T07:05:00.159Z,16.4
2022-09-03T07:10:00.179Z,16.6
2022-09-03T07:15:00.157Z,16.6
2022-09-03T07:20:00.174Z,16.8
2022-09-03T07:25:00.169Z,16.7
2022-09-03T07:30:00.156Z,16.8
2022-09-03T07:45:00.151Z,16.9
2022-09-03T07:50:00.151Z,16.9
2022-09-03T07:55:00.244Z,16.9
2022-09-03T08:00:00.162Z,17.1
2022-09-03T08:05:00.226Z,17.3
2022-09-03T08:10:00.176Z,17.5
2022-09-03T08:15:00.177Z,17.8
2022-09-03T08:25:00.312Z,18.6
2022-09-03T08:30:00.184Z,18.7
2022-09-03T08:35:00.690Z,19
2022-09-03T08:40:00.563Z,19.4
2022-09-03T08:45:00.154Z,19.8
2022-09-03T08:50:00.170Z,20
2022-09-03T08:55:00.174Z,20.3
2022-09-03T09:00:00.209Z,20.8
2022-09-03T09:05:00.160Z,21.3
2022-09-03T09:10:00.172Z,21.3
2022-09-03T09:15:00.166Z,21.5
2022-09-03T09:20:00.163Z,21.9
2022-09-03T09:25:00.170Z,22
2022-09-03T09:30:00.170Z,21.7
2022-09-03T09:35:00.210Z,21.8
2022-09-03T09:40:00.291Z,22.1
2022-09-03T09:45:00.188Z,22.1
2022-09-03T09:50:00.183Z,22.2
2022-09-03T09:55:00.166Z,22.4
2022-09-03T10:00:00.193Z,22.2
2022-09-03T10:05:00.161Z,22
2022-09-03T10:10:00.201Z,21.8
2022-09-03T10:15:00.260Z,21.1
2022-09-03T10:20:06.486Z,20.4
2022-09-03T10:30:00.187Z,18.6
2022-09-03T10:35:00.190Z,17.8
2022-09-03T10:40:00.287Z,17.3
2022-09-03T10:45:00.173Z,17.1
2022-09-03T10:50:00.170Z,17.1
2022-09-03T10:55:00.166Z,17.2
2022-09-03T11:00:00.192Z,17.8
2022-09-03T11:05:00.163Z,18.1
2022-09-03T11:10:00.160Z,18.5
2022-09-03T11:15:00.168Z,19
2022-09-03T11:20:02.043Z,19.5
2022-09-03T11:25:00.223Z,19.6
2022-09-03T11:30:00.239Z,19.9
2022-09-03T11:35:00.197Z,20
2022-09-03T11:40:00.315Z,20.2
2022-09-03T11:45:00.180Z,20.4
2022-09-03T11:50:00.172Z,20.8
2022-09-03T11:55:00.170Z,20.9
2022-09-03T12:00:00.834Z,21.1
2022-09-03T12:05:00.575Z,21.6
2022-09-03T12:10:00.213Z,21.6
2022-09-03T12:15:00.165Z,21.4
2022-09-03T12:20:00.186Z,21
2022-09-03T12:25:00.198Z,20.6
2022-09-03T12:30:00.445Z,20.4
2022-09-03T12:35:00.159Z,20.6
2022-09-03T12:40:08.723Z,20.6
2022-09-03T12:45:00.187Z,20.7
2022-09-03T12:50:00.169Z,20.4
2022-09-03T12:55:00.177Z,20.2
2022-09-03T13:00:00.191Z,20
2022-09-03T13:05:00.189Z,20
2022-09-03T13:10:00.167Z,20.4
2022-09-03T13:15:00.167Z,20.7
2022-09-03T13:20:00.209Z,21.1
2022-09-03T13:25:00.166Z,21.4
2022-09-03T13:30:00.173Z,21.6
2022-09-03T13:35:00.162Z,21.9
2022-09-03T13:40:00.264Z,21.9
2022-09-03T13:45:00.772Z,21.6
2022-09-03T13:50:01.503Z,21.9
2022-09-03T13:55:00.146Z,22.6
2022-09-03T14:00:00.184Z,22.7
2022-09-03T14:05:00.174Z,22.4
2022-09-03T14:10:00.195Z,22.4
2022-09-03T14:15:00.224Z,22.5
2022-09-03T14:20:00.160Z,22.4
2022-09-03T14:25:00.165Z,22.2
2022-09-03T14:30:00.167Z,22.2
2022-09-03T14:35:00.168Z,22.1
2022-09-03T14:40:00.255Z,21.9
2022-09-03T14:45:00.165Z,21.9
2022-09-03T14:50:00.190Z,21.9
2022-09-03T14:55:00.186Z,21.9
2022-09-03T15:00:00.160Z,21.9
2022-09-03T15:05:00.169Z,21.8
2022-09-03T15:10:00.165Z,22.9
2022-09-03T15:15:00.171Z,22.6
2022-09-03T15:20:00.216Z,22.2
2022-09-03T15:25:00.162Z,22
2022-09-03T15:30:00.373Z,21.9
2022-09-03T15:35:00.161Z,21.9
2022-09-03T15:40:00.410Z,21.8
2022-09-03T15:45:00.165Z,21.8
2022-09-03T15:50:00.169Z,21.8
2022-09-03T15:55:00.162Z,21.8
2022-09-03T16:00:00.197Z,21.7
2022-09-03T16:05:00.159Z,21.7
2022-09-03T16:10:23.289Z,21.7
2022-09-03T16:15:00.162Z,21.7
2022-09-03T16:20:00.186Z,21.7
2022-09-03T16:25:00.166Z,22.4
2022-09-03T16:30:00.206Z,22.1
2022-09-03T16:35:00.170Z,21.8
2022-09-03T16:40:00.366Z,21.4
2022-09-03T16:45:00.172Z,21.4
2022-09-03T16:50:00.163Z,21.3
2022-09-03T16:55:00.165Z,21
2022-09-03T17:00:00.195Z,20.9
2022-09-03T17:05:00.203Z,20.6
2022-09-03T17:10:00.185Z,20.4
2022-09-03T17:15:00.168Z,20.2
2022-09-03T17:20:00.183Z,20.2
2022-09-03T17:25:00.189Z,20.2
2022-09-03T17:30:00.189Z,20.1
2022-09-03T17:35:00.198Z,19.9
2022-09-03T17:40:00.293Z,19.8
2022-09-03T17:45:00.176Z,19.6
2022-09-03T17:50:00.179Z,19.3
2022-09-03T17:55:00.172Z,19.1
2022-09-03T18:00:00.180Z,18.8
2022-09-03T18:05:00.164Z,18.6
2022-09-03T18:10:00.191Z,18.5
2022-09-03T18:15:00.170Z,18.4
2022-09-03T18:20:00.176Z,18.2
2022-09-03T18:25:00.172Z,18
2022-09-03T18:30:00.169Z,17.8
2022-09-03T18:35:00.171Z,17.6
2022-09-03T18:40:00.314Z,17.4
2022-09-03T18:45:18.712Z,17.4
2022-09-03T18:50:00.257Z,17.2
2022-09-03T18:55:08.767Z,17.1
2022-09-03T19:00:00.932Z,16.9
2022-09-03T19:05:00.215Z,16.8
2022-09-03T19:10:00.254Z,16.9
2022-09-03T19:15:00.181Z,16.8
2022-09-03T19:20:00.177Z,16.8
2022-09-03T19:25:00.166Z,16.7
2022-09-03T19:30:00.385Z,16.6
2022-09-03T19:35:00.185Z,16.4
2022-09-03T19:40:00.314Z,16.2
2022-09-03T19:45:00.174Z,16.1
2022-09-03T19:50:00.172Z,15.9
2022-09-03T19:55:00.173Z,15.8
2022-09-03T20:00:00.171Z,15.8
2022-09-03T20:05:00.171Z,15.8
2022-09-03T20:10:00.171Z,15.6
2022-09-03T20:15:00.190Z,15.4
2022-09-03T20:20:00.186Z,15.4
2022-09-03T20:25:00.308Z,15.2
2022-09-03T20:30:00.163Z,15.2
2022-09-03T20:35:00.167Z,15.1
2022-09-03T20:40:00.285Z,14.9
2022-09-03T20:45:00.278Z,14.8
2022-09-03T20:50:00.176Z,14.7
2022-09-03T20:55:00.195Z,14.7
2022-09-03T21:00:00.222Z,14.6
2022-09-03T21:05:00.167Z,14.6
2022-09-03T21:10:00.217Z,14.6
2022-09-03T21:15:00.183Z,14.6
2022-09-03T21:20:00.176Z,14.6
2022-09-03T21:25:00.178Z,14.6
2022-09-03T21:30:00.208Z,14.6
2022-09-03T21:35:00.187Z,14.5
2022-09-03T21:40:00.327Z,14.4
2022-09-03T21:45:00.176Z,14.3
2022-09-03T21:50:00.189Z,14.2
2022-09-03T21:55:00.193Z,14.2
2022-09-03T22:00:00.174Z,14.2
2022-09-03T22:05:00.187Z,14.2
2022-09-03T22:10:00.190Z,14.1
2022-09-03T22:15:00.168Z,14.1
2022-09-03T22:20:00.185Z,14
2022-09-03T22:25:00.177Z,14
2022-09-03T22:30:00.167Z,14
2022-09-03T22:35:00.206Z,13.9
2022-09-03T22:40:00.313Z,13.9
2022-09-03T22:45:00.185Z,13.8
2022-09-03T22:50:00.177Z,13.8
2022-09-03T22:55:00.189Z,13.7
2022-09-03T23:00:00.181Z,13.7
2022-09-03T23:05:00.183Z,13.7
2022-09-03T23:10:00.181Z,13.7
2022-09-03T23:15:00.170Z,13.7
2022-09-03T23:20:00.295Z,13.6
2022-09-03T23:25:00.184Z,13.6
2022-09-03T23:30:00.198Z,13.6
2022-09-03T23:35:00.177Z,13.6
2022-09-03T23:40:00.341Z,13.4
2022-09-03T23:45:00.251Z,13.4
2022-09-03T23:50:00.175Z,13.3
2022-09-03T23:55:00.166Z,13.2
